sensor_id;sensor_type;location;lat;lon;timestamp;pressure;altitude;pressure_sealevel;temperature;humidity
76358;BME280;65185;21.060;105.826;2024-02-26T00:01:48;102148.78;;;14.73;100.00
76358;BME280;65185;21.060;105.826;2024-02-26T00:04:14;102147.03;;;14.70;100.00
76358;BME280;65185;21.060;105.826;2024-02-26T00:06:41;102161.81;;;14.73;100.00
76358;BME280;65185;21.060;105.826;2024-02-26T00:09:08;102165.31;;;14.73;100.00
76358;BME280;65185;21.060;105.826;2024-02-26T00:11:38;102174.00;;;14.75;100.00
76358;BME280;65185;21.060;105.826;2024-02-26T00:14:05;102178.34;;;14.76;100.00
76358;BME280;65185;21.060;105.826;2024-02-26T00:16:32;102182.72;;;14.77;100.00
76358;BME280;65185;21.060;105.826;2024-02-26T00:18:58;102183.56;;;14.78;100.00
76358;BME280;65185;21.060;105.826;2024-02-26T00:21:25;102178.38;;;14.79;100.00
76358;BME280;65185;21.060;105.826;2024-02-26T00:23:56;102192.25;;;14.78;100.00
76358;BME280;65185;21.060;105.826;2024-02-26T00:26:22;102201.84;;;14.79;100.00
76358;BME280;65185;21.060;105.826;2024-02-26T00:28:49;102200.09;;;14.80;100.00
76358;BME280;65185;21.060;105.826;2024-02-26T00:31:16;102210.53;;;14.78;100.00
76358;BME280;65185;21.060;105.826;2024-02-26T00:33:43;102210.53;;;14.78;100.00
76358;BME280;65185;21.060;105.826;2024-02-26T00:36:09;102206.19;;;14.79;100.00
76358;BME280;65185;21.060;105.826;2024-02-26T00:38:36;102209.69;;;14.79;100.00
76358;BME280;65185;21.060;105.826;2024-02-26T00:41:03;102213.13;;;14.78;100.00
76358;BME280;65185;21.060;105.826;2024-02-26T00:43:30;102214.00;;;14.82;100.00
76358;BME280;65185;21.060;105.826;2024-02-26T00:45:56;102218.34;;;14.80;100.00
76358;BME280;65185;21.060;105.826;2024-02-26T00:48:23;102217.50;;;14.79;100.00
76358;BME280;65185;21.060;105.826;2024-02-26T00:50:52;102213.13;;;14.80;100.00
76358;BME280;65185;21.060;105.826;2024-02-26T00:53:18;102219.25;;;14.80;100.00
76358;BME280;65185;21.060;105.826;2024-02-26T00:55:45;102220.13;;;14.81;100.00
76358;BME280;65185;21.060;105.826;2024-02-26T00:58:12;102227.06;;;14.82;100.00
76358;BME280;65185;21.060;105.826;2024-02-26T01:00:39;102240.09;;;14.83;100.00
76358;BME280;65185;21.060;105.826;2024-02-26T01:03:05;102241.88;;;14.83;100.00
76358;BME280;65185;21.060;105.826;2024-02-26T01:05:32;102245.31;;;14.83;100.00
76358;BME280;65185;21.060;105.826;2024-02-26T01:07:59;102238.38;;;14.82;100.00
76358;BME280;65185;21.060;105.826;2024-02-26T01:10:26;102246.19;;;14.84;100.00
76358;BME280;65185;21.060;105.826;2024-02-26T01:12:53;102250.53;;;14.85;100.00
76358;BME280;65185;21.060;105.826;2024-02-26T01:15:19;102249.69;;;14.84;100.00
76358;BME280;65185;21.060;105.826;2024-02-26T01:17:50;102258.38;;;14.85;100.00
76358;BME280;65185;21.060;105.826;2024-02-26T01:20:17;102256.63;;;14.87;100.00
76358;BME280;65185;21.060;105.826;2024-02-26T01:22:44;102261.84;;;14.85;100.00
76358;BME280;65185;21.060;105.826;2024-02-26T01:25:11;102273.19;;;14.84;100.00
76358;BME280;65185;21.060;105.826;2024-02-26T01:27:38;102274.91;;;14.87;100.00
76358;BME280;65185;21.060;105.826;2024-02-26T01:30:07;102272.28;;;14.87;100.00
76358;BME280;65185;21.060;105.826;2024-02-26T01:32:34;102274.91;;;14.85;100.00
76358;BME280;65185;21.060;105.826;2024-02-26T01:35:02;102266.22;;;14.89;100.00
76358;BME280;65185;21.060;105.826;2024-02-26T01:37:36;102274.94;;;14.91;100.00
76358;BME280;65185;21.060;105.826;2024-02-26T01:40:03;102281.03;;;14.92;100.00
76358;BME280;65185;21.060;105.826;2024-02-26T01:42:30;102282.75;;;14.93;100.00
76358;BME280;65185;21.060;105.826;2024-02-26T01:44:59;102278.41;;;14.96;100.00
76358;BME280;65185;21.060;105.826;2024-02-26T01:47:26;102284.50;;;14.97;100.00
76358;BME280;65185;21.060;105.826;2024-02-26T01:49:54;102284.50;;;14.97;100.00
76358;BME280;65185;21.060;105.826;2024-02-26T01:52:21;102281.03;;;14.96;100.00
76358;BME280;65185;21.060;105.826;2024-02-26T01:54:48;102288.88;;;14.99;100.00
76358;BME280;65185;21.060;105.826;2024-02-26T01:57:16;102294.06;;;14.98;100.00
76358;BME280;65185;21.060;105.826;2024-02-26T01:59:43;102292.34;;;14.95;100.00
76358;BME280;65185;21.060;105.826;2024-02-26T02:02:11;102296.72;;;14.99;100.00
76358;BME280;65185;21.060;105.826;2024-02-26T02:04:39;102290.59;;;14.99;100.00
76358;BME280;65185;21.060;105.826;2024-02-26T02:07:06;102292.34;;;15.00;100.00
76358;BME280;65185;21.060;105.826;2024-02-26T02:09:33;102293.22;;;15.00;100.00
76358;BME280;65185;21.060;105.826;2024-02-26T02:12:00;102295.81;;;15.03;100.00
76358;BME280;65185;21.060;105.826;2024-02-26T02:14:27;102291.47;;;15.04;100.00
76358;BME280;65185;21.060;105.826;2024-02-26T02:16:54;102300.19;;;15.06;100.00
76358;BME280;65185;21.060;105.826;2024-02-26T02:19:21;102301.09;;;15.16;100.00
76358;BME280;65185;21.060;105.826;2024-02-26T02:21:48;102297.59;;;15.14;100.00
76358;BME280;65185;21.060;105.826;2024-02-26T02:24:14;102302.81;;;15.14;100.00
76358;BME280;65185;21.060;105.826;2024-02-26T02:26:41;102299.31;;;15.15;100.00
76358;BME280;65185;21.060;105.826;2024-02-26T02:29:08;102301.97;;;15.18;100.00
76358;BME280;65185;21.060;105.826;2024-02-26T02:31:35;102295.88;;;15.16;100.00
76358;BME280;65185;21.060;105.826;2024-02-26T02:34:02;102304.56;;;15.13;100.00
76358;BME280;65185;21.060;105.826;2024-02-26T02:36:29;102301.94;;;15.13;100.00
76358;BME280;65185;21.060;105.826;2024-02-26T02:38:56;102304.53;;;15.15;100.00
76358;BME280;65185;21.060;105.826;2024-02-26T02:41:26;102301.94;;;15.15;100.00
76358;BME280;65185;21.060;105.826;2024-02-26T02:43:53;102308.91;;;15.16;100.00
76358;BME280;65185;21.060;105.826;2024-02-26T02:46:20;102308.91;;;15.20;100.00
76358;BME280;65185;21.060;105.826;2024-02-26T02:48:47;102307.19;;;15.21;100.00
76358;BME280;65185;21.060;105.826;2024-02-26T02:51:14;102308.94;;;15.22;100.00
76358;BME280;65185;21.060;105.826;2024-02-26T02:53:46;102310.66;;;15.24;100.00
76358;BME280;65185;21.060;105.826;2024-02-26T02:56:12;102311.53;;;15.25;100.00
76358;BME280;65185;21.060;105.826;2024-02-26T02:58:39;102309.81;;;15.25;100.00
76358;BME280;65185;21.060;105.826;2024-02-26T03:01:06;102308.03;;;15.26;100.00
76358;BME280;65185;21.060;105.826;2024-02-26T03:03:32;102305.44;;;15.26;100.00
76358;BME280;65185;21.060;105.826;2024-02-26T03:05:59;102306.31;;;15.25;100.00
76358;BME280;65185;21.060;105.826;2024-02-26T03:08:26;102306.31;;;15.26;100.00
76358;BME280;65185;21.060;105.826;2024-02-26T03:10:53;102300.22;;;15.26;100.00
76358;BME280;65185;21.060;105.826;2024-02-26T03:13:20;102298.50;;;15.25;100.00
76358;BME280;65185;21.060;105.826;2024-02-26T03:15:46;102305.44;;;15.26;100.00
76358;BME280;65185;21.060;105.826;2024-02-26T03:18:13;102301.09;;;15.28;100.00
76358;BME280;65185;21.060;105.826;2024-02-26T03:20:40;102294.13;;;15.30;100.00
76358;BME280;65185;21.060;105.826;2024-02-26T03:23:07;102295.88;;;15.29;100.00
76358;BME280;65185;21.060;105.826;2024-02-26T03:25:35;102295.00;;;15.29;100.00
76358;BME280;65185;21.060;105.826;2024-02-26T03:28:02;102298.50;;;15.31;100.00
76358;BME280;65185;21.060;105.826;2024-02-26T03:30:29;102291.53;;;15.34;100.00
76358;BME280;65185;21.060;105.826;2024-02-26T03:32:56;102279.34;;;15.36;100.00
76358;BME280;65185;21.060;105.826;2024-02-26T03:35:22;102285.44;;;15.34;100.00
76358;BME280;65185;21.060;105.826;2024-02-26T03:37:49;102279.34;;;15.36;100.00
76358;BME280;65185;21.060;105.826;2024-02-26T03:40:17;102284.56;;;15.36;100.00
76358;BME280;65185;21.060;105.826;2024-02-26T03:42:46;102274.13;;;15.38;100.00
76358;BME280;65185;21.060;105.826;2024-02-26T03:45:12;102267.16;;;15.38;100.00
76358;BME280;65185;21.060;105.826;2024-02-26T03:47:39;102263.66;;;15.33;100.00
76358;BME280;65185;21.060;105.826;2024-02-26T03:50:07;102260.19;;;15.31;100.00
76358;BME280;65185;21.060;105.826;2024-02-26T03:52:34;102257.56;;;15.30;100.00
76358;BME280;65185;21.060;105.826;2024-02-26T03:55:01;102258.44;;;15.30;100.00
76358;BME280;65185;21.060;105.826;2024-02-26T03:57:27;102253.22;;;15.29;100.00
76358;BME280;65185;21.060;105.826;2024-02-26T03:59:54;102250.63;;;15.29;100.00
76358;BME280;65185;21.060;105.826;2024-02-26T04:02:21;102249.75;;;15.27;100.00
76358;BME280;65185;21.060;105.826;2024-02-26T04:04:51;102252.34;;;15.27;100.00
76358;BME280;65185;21.060;105.826;2024-02-26T04:07:28;102251.47;;;15.26;100.00
76358;BME280;65185;21.060;105.826;2024-02-26T04:09:55;102250.63;;;15.29;100.00
76358;BME280;65185;21.060;105.826;2024-02-26T04:12:25;102247.13;;;15.28;100.00
76358;BME280;65185;21.060;105.826;2024-02-26T04:14:51;102250.59;;;15.35;100.00
76358;BME280;65185;21.060;105.826;2024-02-26T04:17:27;102244.50;;;15.31;100.00
76358;BME280;65185;21.060;105.826;2024-02-26T04:19:56;102244.50;;;15.31;100.00
76358;BME280;65185;21.060;105.826;2024-02-26T04:22:35;102232.34;;;15.30;100.00
76358;BME280;65185;21.060;105.826;2024-02-26T04:25:02;102229.72;;;15.35;100.00
76358;BME280;65185;21.060;105.826;2024-02-26T04:27:29;102226.22;;;15.37;100.00
76358;BME280;65185;21.060;105.826;2024-02-26T04:29:55;102208.84;;;15.41;100.00
76358;BME280;65185;21.060;105.826;2024-02-26T04:32:22;102208.00;;;15.42;100.00
76358;BME280;65185;21.060;105.826;2024-02-26T04:34:52;102201.00;;;15.42;100.00
76358;BME280;65185;21.060;105.826;2024-02-26T04:37:19;102197.53;;;15.45;100.00
76358;BME280;65185;21.060;105.826;2024-02-26T04:39:45;102195.78;;;15.47;100.00
76358;BME280;65185;21.060;105.826;2024-02-26T04:42:12;102195.78;;;15.50;100.00
76358;BME280;65185;21.060;105.826;2024-02-26T04:44:40;102187.09;;;15.52;100.00
76358;BME280;65185;21.060;105.826;2024-02-26T04:47:06;102184.47;;;15.52;100.00
76358;BME280;65185;21.060;105.826;2024-02-26T04:49:33;102180.97;;;15.56;100.00
76358;BME280;65185;21.060;105.826;2024-02-26T04:52:00;102180.09;;;15.57;100.00
76358;BME280;65185;21.060;105.826;2024-02-26T04:54:27;102168.75;;;15.57;100.00
76358;BME280;65185;21.060;105.826;2024-02-26T04:56:53;102168.78;;;15.58;100.00
76358;BME280;65185;21.060;105.826;2024-02-26T04:59:20;102164.41;;;15.59;100.00
76358;BME280;65185;21.060;105.826;2024-02-26T05:01:48;102164.41;;;15.60;100.00
76358;BME280;65185;21.060;105.826;2024-02-26T05:04:14;102161.78;;;15.60;100.00
76358;BME280;65185;21.060;105.826;2024-02-26T05:06:41;102153.09;;;15.63;100.00
76358;BME280;65185;21.060;105.826;2024-02-26T05:09:08;102145.25;;;15.63;100.00
76358;BME280;65185;21.060;105.826;2024-02-26T05:11:35;102142.63;;;15.64;100.00
76358;BME280;65185;21.060;105.826;2024-02-26T05:14:02;102145.22;;;15.64;100.00
76358;BME280;65185;21.060;105.826;2024-02-26T05:16:29;102143.50;;;15.65;100.00
76358;BME280;65185;21.060;105.826;2024-02-26T05:18:57;102137.41;;;15.69;100.00
76358;BME280;65185;21.060;105.826;2024-02-26T05:21:27;102132.16;;;15.69;100.00
76358;BME280;65185;21.060;105.826;2024-02-26T05:23:53;102123.47;;;15.73;100.00
76358;BME280;65185;21.060;105.826;2024-02-26T05:26:23;102114.72;;;15.74;100.00
76358;BME280;65185;21.060;105.826;2024-02-26T05:28:49;102111.25;;;15.76;100.00
76358;BME280;65185;21.060;105.826;2024-02-26T05:31:19;102101.66;;;15.75;100.00
76358;BME280;65185;21.060;105.826;2024-02-26T05:33:48;102099.91;;;15.77;100.00
76358;BME280;65185;21.060;105.826;2024-02-26T05:36:19;102095.53;;;15.79;100.00
76358;BME280;65185;21.060;105.826;2024-02-26T05:38:50;102096.41;;;15.81;100.00
76358;BME280;65185;21.060;105.826;2024-02-26T05:41:16;102092.06;;;15.82;100.00
76358;BME280;65185;21.060;105.826;2024-02-26T05:43:49;102083.31;;;15.83;100.00
76358;BME280;65185;21.060;105.826;2024-02-26T05:46:22;102081.56;;;15.85;100.00
76358;BME280;65185;21.060;105.826;2024-02-26T05:48:55;102074.63;;;15.84;100.00
76358;BME280;65185;21.060;105.826;2024-02-26T05:51:22;102076.38;;;15.82;100.00
76358;BME280;65185;21.060;105.826;2024-02-26T05:53:52;102077.25;;;15.84;100.00
76358;BME280;65185;21.060;105.826;2024-02-26T05:56:22;102077.22;;;15.82;100.00
76358;BME280;65185;21.060;105.826;2024-02-26T05:58:49;102064.16;;;15.81;100.00
76358;BME280;65185;21.060;105.826;2024-02-26T06:01:16;102059.81;;;15.81;100.00
76358;BME280;65185;21.060;105.826;2024-02-26T06:03:49;102063.31;;;15.82;100.00
76358;BME280;65185;21.060;105.826;2024-02-26T06:06:20;102054.56;;;15.83;100.00
76358;BME280;65185;21.060;105.826;2024-02-26T06:08:49;102053.69;;;15.88;100.00
76358;BME280;65185;21.060;105.826;2024-02-26T06:11:16;102045.84;;;15.88;100.00
76358;BME280;65185;21.060;105.826;2024-02-26T06:13:42;102041.50;;;15.87;100.00
76358;BME280;65185;21.060;105.826;2024-02-26T06:16:09;102027.56;;;15.87;100.00
76358;BME280;65185;21.060;105.826;2024-02-26T06:18:36;102024.97;;;15.85;100.00
76358;BME280;65185;21.060;105.826;2024-02-26T06:21:03;102019.72;;;15.85;100.00
76358;BME280;65185;21.060;105.826;2024-02-26T06:23:30;102026.72;;;15.80;100.00
76358;BME280;65185;21.060;105.826;2024-02-26T06:25:56;102014.50;;;15.82;100.00
76358;BME280;65185;21.060;105.826;2024-02-26T06:28:29;102004.06;;;15.84;100.00
76358;BME280;65185;21.060;105.826;2024-02-26T06:30:58;101995.31;;;15.86;100.00
76358;BME280;65185;21.060;105.826;2024-02-26T06:33:28;101997.06;;;15.87;100.00
76358;BME280;65185;21.060;105.826;2024-02-26T06:35:54;101986.56;;;15.90;100.00
76358;BME280;65185;21.060;105.826;2024-02-26T06:38:21;101973.47;;;15.93;100.00
76358;BME280;65185;21.060;105.826;2024-02-26T06:40:48;101961.28;;;15.94;100.00
76358;BME280;65185;21.060;105.826;2024-02-26T06:43:15;101951.69;;;15.96;100.00
76358;BME280;65185;21.060;105.826;2024-02-26T06:45:41;101949.06;;;15.96;100.00
76358;BME280;65185;21.060;105.826;2024-02-26T06:48:08;101951.66;;;15.99;100.00
76358;BME280;65185;21.060;105.826;2024-02-26T06:50:35;101945.56;;;16.02;100.00
76358;BME280;65185;21.060;105.826;2024-02-26T06:53:05;101938.53;;;16.05;100.00
76358;BME280;65185;21.060;105.826;2024-02-26T06:55:33;101942.03;;;16.06;100.00
76358;BME280;65185;21.060;105.826;2024-02-26T06:58:00;101940.31;;;16.06;100.00
76358;BME280;65185;21.060;105.826;2024-02-26T07:00:27;101935.06;;;16.03;100.00
76358;BME280;65185;21.060;105.826;2024-02-26T07:02:53;101934.22;;;16.03;100.00
76358;BME280;65185;21.060;105.826;2024-02-26T07:05:20;101925.50;;;15.99;100.00
76358;BME280;65185;21.060;105.826;2024-02-26T07:07:48;101923.78;;;15.98;100.00
76358;BME280;65185;21.060;105.826;2024-02-26T07:10:15;101916.00;;;15.95;100.00
76358;BME280;65185;21.060;105.826;2024-02-26T07:12:43;101916.88;;;15.91;100.00
76358;BME280;65185;21.060;105.826;2024-02-26T07:15:10;101906.41;;;15.94;100.00
76358;BME280;65185;21.060;105.826;2024-02-26T07:17:38;101904.66;;;15.94;100.00
76358;BME280;65185;21.060;105.826;2024-02-26T07:20:08;101895.06;;;15.92;100.00
76358;BME280;65185;21.060;105.826;2024-02-26T07:22:35;101897.69;;;15.95;100.00
76358;BME280;65185;21.060;105.826;2024-02-26T07:25:02;101886.34;;;15.96;100.00
76358;BME280;65185;21.060;105.826;2024-02-26T07:27:32;101895.00;;;16.01;100.00
76358;BME280;65185;21.060;105.826;2024-02-26T07:29:59;101880.22;;;16.00;100.00
76358;BME280;65185;21.060;105.826;2024-02-26T07:32:26;101874.09;;;16.01;100.00
76358;BME280;65185;21.060;105.826;2024-02-26T07:34:53;101874.09;;;16.03;100.00
76358;BME280;65185;21.060;105.826;2024-02-26T07:37:19;101869.69;;;16.05;100.00
76358;BME280;65185;21.060;105.826;2024-02-26T07:39:46;101859.25;;;16.05;100.00
76358;BME280;65185;21.060;105.826;2024-02-26T07:42:13;101858.41;;;16.04;100.00
76358;BME280;65185;21.060;105.826;2024-02-26T07:44:39;101858.34;;;16.07;100.00
76358;BME280;65185;21.060;105.826;2024-02-26T07:47:09;101856.63;;;16.08;100.00
76358;BME280;65185;21.060;105.826;2024-02-26T07:49:36;101857.50;;;16.08;100.00
76358;BME280;65185;21.060;105.826;2024-02-26T07:52:03;101853.16;;;16.06;100.00
76358;BME280;65185;21.060;105.826;2024-02-26T07:54:30;101854.00;;;16.08;100.00
76358;BME280;65185;21.060;105.826;2024-02-26T07:56:56;101852.28;;;16.05;100.00
76358;BME280;65185;21.060;105.826;2024-02-26T07:59:23;101850.50;;;16.07;100.00
76358;BME280;65185;21.060;105.826;2024-02-26T08:01:51;101860.97;;;16.07;100.00
76358;BME280;65185;21.060;105.826;2024-02-26T08:04:18;101857.50;;;16.08;100.00
76358;BME280;65185;21.060;105.826;2024-02-26T08:06:44;101854.88;;;16.08;100.00
76358;BME280;65185;21.060;105.826;2024-02-26T08:09:11;101849.66;;;16.08;100.00
76358;BME280;65185;21.060;105.826;2024-02-26T08:11:38;101857.47;;;16.07;100.00
76358;BME280;65185;21.060;105.826;2024-02-26T08:14:06;101846.19;;;16.06;100.00
76358;BME280;65185;21.060;105.826;2024-02-26T08:16:32;101853.13;;;16.07;100.00
76358;BME280;65185;21.060;105.826;2024-02-26T08:18:59;101845.25;;;16.09;100.00
76358;BME280;65185;21.060;105.826;2024-02-26T08:21:26;101837.44;;;16.07;100.00
76358;BME280;65185;21.060;105.826;2024-02-26T08:23:52;101842.66;;;16.09;100.00
76358;BME280;65185;21.060;105.826;2024-02-26T08:26:19;101843.50;;;16.11;100.00
76358;BME280;65185;21.060;105.826;2024-02-26T08:28:49;101856.59;;;16.11;100.00
76358;BME280;65185;21.060;105.826;2024-02-26T08:31:17;101850.50;;;16.09;100.00
76358;BME280;65185;21.060;105.826;2024-02-26T08:33:44;101843.53;;;16.09;100.00
76358;BME280;65185;21.060;105.826;2024-02-26T08:36:11;101848.75;;;16.09;100.00
76358;BME280;65185;21.060;105.826;2024-02-26T08:38:39;101847.03;;;16.08;100.00
76358;BME280;65185;21.060;105.826;2024-02-26T08:41:05;101846.16;;;16.08;100.00
76358;BME280;65185;21.060;105.826;2024-02-26T08:43:32;101853.13;;;16.07;100.00
76358;BME280;65185;21.060;105.826;2024-02-26T08:45:59;101847.91;;;16.07;100.00
76358;BME280;65185;21.060;105.826;2024-02-26T08:48:25;101850.50;;;16.07;100.00
76358;BME280;65185;21.060;105.826;2024-02-26T08:50:52;101843.56;;;16.06;100.00
76358;BME280;65185;21.060;105.826;2024-02-26T08:53:19;101847.03;;;16.07;100.00
76358;BME280;65185;21.060;105.826;2024-02-26T08:55:46;101852.28;;;16.05;100.00
76358;BME280;65185;21.060;105.826;2024-02-26T08:58:13;101840.94;;;16.05;100.00
76358;BME280;65185;21.060;105.826;2024-02-26T09:00:39;101843.56;;;16.06;100.00
76358;BME280;65185;21.060;105.826;2024-02-26T09:03:06;101840.94;;;16.06;100.00
76358;BME280;65185;21.060;105.826;2024-02-26T09:05:33;101840.94;;;16.06;100.00
76358;BME280;65185;21.060;105.826;2024-02-26T09:08:00;101850.50;;;16.07;100.00
76358;BME280;65185;21.060;105.826;2024-02-26T09:10:27;101847.91;;;16.06;100.00
76358;BME280;65185;21.060;105.826;2024-02-26T09:12:54;101848.81;;;16.03;100.00
76358;BME280;65185;21.060;105.826;2024-02-26T09:15:21;101844.50;;;16.01;100.00
76358;BME280;65185;21.060;105.826;2024-02-26T09:17:48;101852.31;;;16.02;100.00
76358;BME280;65185;21.060;105.826;2024-02-26T09:20:16;101845.34;;;16.01;100.00
76358;BME280;65185;21.060;105.826;2024-02-26T09:22:46;101848.81;;;16.03;100.00
76358;BME280;65185;21.060;105.826;2024-02-26T09:25:13;101849.72;;;16.01;100.00
76358;BME280;65185;21.060;105.826;2024-02-26T09:27:46;101844.47;;;15.99;100.00
76358;BME280;65185;21.060;105.826;2024-02-26T09:30:13;101832.25;;;16.01;100.00
76358;BME280;65185;21.060;105.826;2024-02-26T09:32:40;101839.25;;;16.02;100.00
76358;BME280;65185;21.060;105.826;2024-02-26T09:35:07;101842.72;;;16.03;100.00
76358;BME280;65185;21.060;105.826;2024-02-26T09:37:34;101838.34;;;16.03;100.00
76358;BME280;65185;21.060;105.826;2024-02-26T09:40:04;101834.88;;;16.04;100.00
76358;BME280;65185;21.060;105.826;2024-02-26T09:42:32;101835.72;;;16.03;100.00
76358;BME280;65185;21.060;105.826;2024-02-26T09:45:05;101840.97;;;16.03;100.00
76358;BME280;65185;21.060;105.826;2024-02-26T09:47:36;101832.28;;;16.03;100.00
76358;BME280;65185;21.060;105.826;2024-02-26T09:50:06;101830.53;;;16.02;100.00
76358;BME280;65185;21.060;105.826;2024-02-26T09:52:38;101827.03;;;16.01;100.00
76358;BME280;65185;21.060;105.826;2024-02-26T09:55:05;101833.19;;;15.98;100.00
76358;BME280;65185;21.060;105.826;2024-02-26T09:57:36;101842.72;;;16.01;100.00
76358;BME280;65185;21.060;105.826;2024-02-26T10:00:03;101828.78;;;15.99;100.00
76358;BME280;65185;21.060;105.826;2024-02-26T10:02:36;101834.91;;;15.98;100.00
76358;BME280;65185;21.060;105.826;2024-02-26T10:05:07;101829.66;;;15.99;100.00
76358;BME280;65185;21.060;105.826;2024-02-26T10:07:37;101833.19;;;15.97;100.00
76358;BME280;65185;21.060;105.826;2024-02-26T10:10:05;101828.81;;;15.97;100.00
76358;BME280;65185;21.060;105.826;2024-02-26T10:12:32;101827.97;;;15.94;100.00
76358;BME280;65185;21.060;105.826;2024-02-26T10:14:58;101828.84;;;15.94;100.00
76358;BME280;65185;21.060;105.826;2024-02-26T10:17:26;101829.72;;;15.93;100.00
76358;BME280;65185;21.060;105.826;2024-02-26T10:19:54;101824.47;;;15.93;100.00
76358;BME280;65185;21.060;105.826;2024-02-26T10:22:23;101820.13;;;15.94;100.00
76358;BME280;65185;21.060;105.826;2024-02-26T10:24:49;101820.16;;;15.92;100.00
76358;BME280;65185;21.060;105.826;2024-02-26T10:27:16;101827.97;;;15.94;100.00
76358;BME280;65185;21.060;105.826;2024-02-26T10:29:43;101828.00;;;15.92;100.00
76358;BME280;65185;21.060;105.826;2024-02-26T10:32:12;101824.50;;;15.95;100.00
76358;BME280;65185;21.060;105.826;2024-02-26T10:34:40;101830.59;;;15.94;100.00
76358;BME280;65185;21.060;105.826;2024-02-26T10:37:08;101823.66;;;15.93;100.00
76358;BME280;65185;21.060;105.826;2024-02-26T10:39:36;101824.47;;;15.93;100.00
76358;BME280;65185;21.060;105.826;2024-02-26T10:42:04;101827.13;;;15.92;100.00
76358;BME280;65185;21.060;105.826;2024-02-26T10:44:35;101834.13;;;15.91;100.00
76358;BME280;65185;21.060;105.826;2024-02-26T10:47:02;101834.97;;;15.92;100.00
76358;BME280;65185;21.060;105.826;2024-02-26T10:49:30;101836.72;;;15.93;100.00
76358;BME280;65185;21.060;105.826;2024-02-26T10:51:56;101836.72;;;15.91;100.00
76358;BME280;65185;21.060;105.826;2024-02-26T10:54:25;101833.25;;;15.91;100.00
76358;BME280;65185;21.060;105.826;2024-02-26T10:56:59;101831.50;;;15.91;100.00
76358;BME280;65185;21.060;105.826;2024-02-26T10:59:29;101842.81;;;15.92;100.00
76358;BME280;65185;21.060;105.826;2024-02-26T11:01:57;101839.34;;;15.90;100.00
76358;BME280;65185;21.060;105.826;2024-02-26T11:04:27;101847.19;;;15.90;100.00
76358;BME280;65185;21.060;105.826;2024-02-26T11:06:59;101848.06;;;15.89;100.00
76358;BME280;65185;21.060;105.826;2024-02-26T11:09:31;101848.94;;;15.88;100.00
76358;BME280;65185;21.060;105.826;2024-02-26T11:11:57;101856.78;;;15.88;100.00
76358;BME280;65185;21.060;105.826;2024-02-26T11:14:26;101852.41;;;15.88;100.00
76358;BME280;65185;21.060;105.826;2024-02-26T11:16:54;101865.50;;;15.88;100.00
76358;BME280;65185;21.060;105.826;2024-02-26T11:19:21;101858.53;;;15.89;100.00
76358;BME280;65185;21.060;105.826;2024-02-26T11:21:48;101857.66;;;15.87;100.00
76358;BME280;65185;21.060;105.826;2024-02-26T11:24:16;101863.78;;;15.86;100.00
76358;BME280;65185;21.060;105.826;2024-02-26T11:26:52;101866.41;;;15.86;100.00
76358;BME280;65185;21.060;105.826;2024-02-26T11:29:35;101869.88;;;15.85;100.00
76358;BME280;65185;21.060;105.826;2024-02-26T11:32:07;101877.72;;;15.85;100.00
76358;BME280;65185;21.060;105.826;2024-02-26T11:34:35;101877.72;;;15.85;100.00
76358;BME280;65185;21.060;105.826;2024-02-26T11:37:15;101878.63;;;15.84;100.00
76358;BME280;65185;21.060;105.826;2024-02-26T11:39:43;101883.81;;;15.82;100.00
76358;BME280;65185;21.060;105.826;2024-02-26T11:42:14;101890.81;;;15.82;100.00
76358;BME280;65185;21.060;105.826;2024-02-26T11:44:41;101893.44;;;15.82;100.00
76358;BME280;65185;21.060;105.826;2024-02-26T11:47:19;101895.19;;;15.80;100.00
76358;BME280;65185;21.060;105.826;2024-02-26T11:49:46;101907.41;;;15.78;100.00
76358;BME280;65185;21.060;105.826;2024-02-26T11:52:14;101908.25;;;15.77;100.00
76358;BME280;65185;21.060;105.826;2024-02-26T11:54:51;101909.16;;;15.74;100.00
76358;BME280;65185;21.060;105.826;2024-02-26T11:57:29;101910.91;;;15.74;100.00
76358;BME280;65185;21.060;105.826;2024-02-26T12:00:11;101920.47;;;15.78;100.00
76358;BME280;65185;21.060;105.826;2024-02-26T12:02:41;101919.59;;;15.76;100.00
76358;BME280;65185;21.060;105.826;2024-02-26T12:05:16;101929.19;;;15.74;100.00
76358;BME280;65185;21.060;105.826;2024-02-26T12:07:48;101934.44;;;15.71;100.00
76358;BME280;65185;21.060;105.826;2024-02-26T12:10:30;101931.84;;;15.69;100.00
76358;BME280;65185;21.060;105.826;2024-02-26T12:13:17;101937.91;;;15.71;100.00
76358;BME280;65185;21.060;105.826;2024-02-26T12:15:56;101944.03;;;15.69;100.00
76358;BME280;65185;21.060;105.826;2024-02-26T12:18:24;101942.31;;;15.65;100.00
76358;BME280;65185;21.060;105.826;2024-02-26T12:21:01;101948.41;;;15.65;100.00
76358;BME280;65185;21.060;105.826;2024-02-26T12:23:28;101949.28;;;15.64;100.00
76358;BME280;65185;21.060;105.826;2024-02-26T12:25:59;101949.31;;;15.60;100.00